sensor_id;sensor_type;location;lat;lon;timestamp;P1;durP1;ratioP1;P2;durP2;ratioP2
3006;SDS011;1513;47.650;10.720;2023-08-30T00:00:59;3.60;;;1.30;;
3006;SDS011;1513;47.650;10.720;2023-08-30T00:03:25;0.83;;;0.83;;
3006;SDS011;1513;47.650;10.720;2023-08-30T00:05:51;1.30;;;1.20;;
3006;SDS011;1513;47.650;10.720;2023-08-30T00:08:18;1.33;;;1.17;;
3006;SDS011;1513;47.650;10.720;2023-08-30T00:10:45;1.07;;;0.97;;
3006;SDS011;1513;47.650;10.720;2023-08-30T00:13:11;2.00;;;1.17;;
3006;SDS011;1513;47.650;10.720;2023-08-30T00:15:38;1.90;;;1.70;;
3006;SDS011;1513;47.650;10.720;2023-08-30T00:18:04;1.57;;;1.47;;
3006;SDS011;1513;47.650;10.720;2023-08-30T00:20:31;2.47;;;1.83;;
3006;SDS011;1513;47.650;10.720;2023-08-30T00:22:57;2.13;;;2.00;;
3006;SDS011;1513;47.650;10.720;2023-08-30T00:25:24;2.20;;;1.67;;
3006;SDS011;1513;47.650;10.720;2023-08-30T00:27:50;2.17;;;1.90;;
3006;SDS011;1513;47.650;10.720;2023-08-30T00:30:16;2.37;;;2.00;;
3006;SDS011;1513;47.650;10.720;2023-08-30T00:32:43;2.13;;;1.93;;
3006;SDS011;1513;47.650;10.720;2023-08-30T00:35:10;1.80;;;1.50;;
3006;SDS011;1513;47.650;10.720;2023-08-30T00:37:36;1.70;;;1.37;;
3006;SDS011;1513;47.650;10.720;2023-08-30T00:40:03;1.30;;;1.20;;
3006;SDS011;1513;47.650;10.720;2023-08-30T00:42:31;1.80;;;1.60;;
3006;SDS011;1513;47.650;10.720;2023-08-30T00:44:57;1.97;;;1.77;;
3006;SDS011;1513;47.650;10.720;2023-08-30T00:47:23;1.73;;;1.63;;
3006;SDS011;1513;47.650;10.720;2023-08-30T00:49:50;4.13;;;1.90;;
3006;SDS011;1513;47.650;10.720;2023-08-30T00:52:16;2.03;;;1.83;;
3006;SDS011;1513;47.650;10.720;2023-08-30T00:54:43;2.70;;;1.70;;
3006;SDS011;1513;47.650;10.720;2023-08-30T00:57:09;1.60;;;1.50;;
3006;SDS011;1513;47.650;10.720;2023-08-30T00:59:36;1.70;;;1.60;;
3006;SDS011;1513;47.650;10.720;2023-08-30T01:02:02;1.53;;;1.43;;
3006;SDS011;1513;47.650;10.720;2023-08-30T01:04:32;1.57;;;1.47;;
3006;SDS011;1513;47.650;10.720;2023-08-30T01:06:58;1.23;;;1.23;;
3006;SDS011;1513;47.650;10.720;2023-08-30T01:09:25;1.70;;;1.60;;
3006;SDS011;1513;47.650;10.720;2023-08-30T01:12:07;1.83;;;1.73;;
3006;SDS011;1513;47.650;10.720;2023-08-30T01:15:03;2.73;;;1.63;;
3006;SDS011;1513;47.650;10.720;2023-08-30T01:17:28;1.40;;;1.30;;
3006;SDS011;1513;47.650;10.720;2023-08-30T01:19:59;1.70;;;1.60;;
3006;SDS011;1513;47.650;10.720;2023-08-30T01:28:16;2.00;;;1.90;;
3006;SDS011;1513;47.650;10.720;2023-08-30T01:30:46;1.93;;;1.73;;
3006;SDS011;1513;47.650;10.720;2023-08-30T01:33:13;1.67;;;1.57;;
3006;SDS011;1513;47.650;10.720;2023-08-30T01:35:41;2.43;;;1.83;;
3006;SDS011;1513;47.650;10.720;2023-08-30T01:38:07;1.40;;;1.30;;
3006;SDS011;1513;47.650;10.720;2023-08-30T01:40:38;2.10;;;1.33;;
3006;SDS011;1513;47.650;10.720;2023-08-30T01:43:06;6.43;;;1.27;;
3006;SDS011;1513;47.650;10.720;2023-08-30T01:45:35;2.30;;;1.43;;
3006;SDS011;1513;47.650;10.720;2023-08-30T01:48:07;1.77;;;1.67;;
3006;SDS011;1513;47.650;10.720;2023-08-30T01:50:38;1.10;;;1.10;;
3006;SDS011;1513;47.650;10.720;2023-08-30T01:53:06;1.90;;;1.60;;
3006;SDS011;1513;47.650;10.720;2023-08-30T01:55:33;1.67;;;1.57;;
3006;SDS011;1513;47.650;10.720;2023-08-30T01:58:01;1.80;;;1.70;;
3006;SDS011;1513;47.650;10.720;2023-08-30T02:00:28;1.60;;;1.50;;
3006;SDS011;1513;47.650;10.720;2023-08-30T02:02:56;2.13;;;1.50;;
3006;SDS011;1513;47.650;10.720;2023-08-30T02:05:22;2.70;;;1.83;;
3006;SDS011;1513;47.650;10.720;2023-08-30T02:10:34;1.40;;;1.30;;
3006;SDS011;1513;47.650;10.720;2023-08-30T02:13:04;1.63;;;1.50;;
3006;SDS011;1513;47.650;10.720;2023-08-30T02:15:31;1.57;;;1.47;;
3006;SDS011;1513;47.650;10.720;2023-08-30T02:17:59;1.50;;;1.40;;
3006;SDS011;1513;47.650;10.720;2023-08-30T02:20:26;1.47;;;1.37;;
3006;SDS011;1513;47.650;10.720;2023-08-30T02:22:52;1.50;;;1.40;;
3006;SDS011;1513;47.650;10.720;2023-08-30T02:25:20;1.20;;;1.20;;
3006;SDS011;1513;47.650;10.720;2023-08-30T02:27:49;1.50;;;1.40;;
3006;SDS011;1513;47.650;10.720;2023-08-30T02:30:15;1.50;;;1.40;;
3006;SDS011;1513;47.650;10.720;2023-08-30T02:32:41;1.53;;;1.43;;
3006;SDS011;1513;47.650;10.720;2023-08-30T02:35:08;1.57;;;1.43;;
3006;SDS011;1513;47.650;10.720;2023-08-30T02:37:37;2.17;;;1.37;;
3006;SDS011;1513;47.650;10.720;2023-08-30T02:40:05;1.70;;;1.60;;
3006;SDS011;1513;47.650;10.720;2023-08-30T02:42:32;1.67;;;1.57;;
3006;SDS011;1513;47.650;10.720;2023-08-30T02:44:58;1.90;;;1.80;;
3006;SDS011;1513;47.650;10.720;2023-08-30T02:47:25;1.47;;;1.37;;
3006;SDS011;1513;47.650;10.720;2023-08-30T02:49:52;1.80;;;1.70;;
3006;SDS011;1513;47.650;10.720;2023-08-30T02:52:18;2.60;;;1.40;;
3006;SDS011;1513;47.650;10.720;2023-08-30T02:54:45;2.60;;;1.57;;
3006;SDS011;1513;47.650;10.720;2023-08-30T02:57:11;1.57;;;1.47;;
3006;SDS011;1513;47.650;10.720;2023-08-30T02:59:38;2.10;;;1.90;;
3006;SDS011;1513;47.650;10.720;2023-08-30T03:02:05;4.80;;;1.80;;
3006;SDS011;1513;47.650;10.720;2023-08-30T03:04:32;4.03;;;1.70;;
3006;SDS011;1513;47.650;10.720;2023-08-30T03:06:59;2.17;;;1.40;;
3006;SDS011;1513;47.650;10.720;2023-08-30T03:09:27;3.40;;;1.73;;
3006;SDS011;1513;47.650;10.720;2023-08-30T03:11:54;2.20;;;1.50;;
3006;SDS011;1513;47.650;10.720;2023-08-30T03:14:20;1.80;;;1.70;;
3006;SDS011;1513;47.650;10.720;2023-08-30T03:16:47;6.63;;;1.40;;
3006;SDS011;1513;47.650;10.720;2023-08-30T03:19:13;2.17;;;1.73;;
3006;SDS011;1513;47.650;10.720;2023-08-30T03:21:42;2.00;;;1.80;;
3006;SDS011;1513;47.650;10.720;2023-08-30T03:24:09;2.40;;;2.20;;
3006;SDS011;1513;47.650;10.720;2023-08-30T03:26:36;1.50;;;1.40;;
3006;SDS011;1513;47.650;10.720;2023-08-30T03:29:02;1.70;;;1.60;;
3006;SDS011;1513;47.650;10.720;2023-08-30T03:31:28;1.83;;;1.67;;
3006;SDS011;1513;47.650;10.720;2023-08-30T03:33:55;2.73;;;1.80;;
3006;SDS011;1513;47.650;10.720;2023-08-30T03:36:21;2.67;;;2.27;;
3006;SDS011;1513;47.650;10.720;2023-08-30T03:38:47;2.30;;;2.10;;
3006;SDS011;1513;47.650;10.720;2023-08-30T03:41:14;2.87;;;2.57;;
3006;SDS011;1513;47.650;10.720;2023-08-30T03:43:42;3.40;;;2.90;;
3006;SDS011;1513;47.650;10.720;2023-08-30T03:46:09;5.00;;;3.50;;
3006;SDS011;1513;47.650;10.720;2023-08-30T03:48:36;4.10;;;3.30;;
3006;SDS011;1513;47.650;10.720;2023-08-30T03:51:03;4.20;;;3.70;;
3006;SDS011;1513;47.650;10.720;2023-08-30T03:53:29;4.00;;;3.50;;
3006;SDS011;1513;47.650;10.720;2023-08-30T03:55:56;3.77;;;2.90;;
3006;SDS011;1513;47.650;10.720;2023-08-30T03:58:23;2.90;;;2.60;;
3006;SDS011;1513;47.650;10.720;2023-08-30T04:00:49;4.10;;;3.00;;
3006;SDS011;1513;47.650;10.720;2023-08-30T04:03:16;2.83;;;2.63;;
3006;SDS011;1513;47.650;10.720;2023-08-30T04:05:42;2.23;;;2.13;;
3006;SDS011;1513;47.650;10.720;2023-08-30T04:08:09;2.60;;;2.40;;
3006;SDS011;1513;47.650;10.720;2023-08-30T04:10:39;2.07;;;1.90;;
3006;SDS011;1513;47.650;10.720;2023-08-30T04:13:07;1.80;;;1.70;;
3006;SDS011;1513;47.650;10.720;2023-08-30T04:15:37;2.17;;;2.07;;
3006;SDS011;1513;47.650;10.720;2023-08-30T04:18:04;1.83;;;1.73;;
3006;SDS011;1513;47.650;10.720;2023-08-30T04:20:31;1.80;;;1.70;;
3006;SDS011;1513;47.650;10.720;2023-08-30T04:22:58;1.53;;;1.43;;
3006;SDS011;1513;47.650;10.720;2023-08-30T04:25:28;2.13;;;1.93;;
3006;SDS011;1513;47.650;10.720;2023-08-30T04:27:56;1.70;;;1.60;;
3006;SDS011;1513;47.650;10.720;2023-08-30T04:30:23;3.50;;;2.20;;
3006;SDS011;1513;47.650;10.720;2023-08-30T04:32:50;2.93;;;2.70;;
3006;SDS011;1513;47.650;10.720;2023-08-30T04:35:17;4.63;;;3.57;;
3006;SDS011;1513;47.650;10.720;2023-08-30T04:37:43;4.17;;;3.73;;
3006;SDS011;1513;47.650;10.720;2023-08-30T04:40:10;3.50;;;3.20;;
3006;SDS011;1513;47.650;10.720;2023-08-30T04:42:36;4.13;;;2.37;;
3006;SDS011;1513;47.650;10.720;2023-08-30T04:45:05;3.03;;;2.33;;
3006;SDS011;1513;47.650;10.720;2023-08-30T04:47:32;5.60;;;2.10;;
3006;SDS011;1513;47.650;10.720;2023-08-30T04:50:00;3.30;;;1.87;;
3006;SDS011;1513;47.650;10.720;2023-08-30T04:52:27;2.70;;;2.17;;
3006;SDS011;1513;47.650;10.720;2023-08-30T04:54:55;2.33;;;1.90;;
3006;SDS011;1513;47.650;10.720;2023-08-30T04:57:24;1.77;;;1.67;;
3006;SDS011;1513;47.650;10.720;2023-08-30T04:59:51;1.97;;;1.83;;
3006;SDS011;1513;47.650;10.720;2023-08-30T05:02:18;2.00;;;1.90;;
3006;SDS011;1513;47.650;10.720;2023-08-30T05:05:00;2.20;;;1.63;;
3006;SDS011;1513;47.650;10.720;2023-08-30T05:07:26;2.20;;;2.00;;
3006;SDS011;1513;47.650;10.720;2023-08-30T05:09:53;3.60;;;2.67;;
3006;SDS011;1513;47.650;10.720;2023-08-30T05:12:20;4.30;;;2.37;;
3006;SDS011;1513;47.650;10.720;2023-08-30T05:14:46;6.80;;;2.90;;
3006;SDS011;1513;47.650;10.720;2023-08-30T05:17:12;4.40;;;3.30;;
3006;SDS011;1513;47.650;10.720;2023-08-30T05:19:39;3.27;;;2.90;;
3006;SDS011;1513;47.650;10.720;2023-08-30T05:22:05;5.73;;;3.97;;
3006;SDS011;1513;47.650;10.720;2023-08-30T05:24:34;4.57;;;2.83;;
3006;SDS011;1513;47.650;10.720;2023-08-30T05:27:01;2.30;;;2.10;;
3006;SDS011;1513;47.650;10.720;2023-08-30T05:29:37;2.40;;;2.20;;
3006;SDS011;1513;47.650;10.720;2023-08-30T05:32:04;3.50;;;1.53;;
3006;SDS011;1513;47.650;10.720;2023-08-30T05:34:45;2.23;;;2.00;;
3006;SDS011;1513;47.650;10.720;2023-08-30T05:37:38;4.90;;;1.60;;
3006;SDS011;1513;47.650;10.720;2023-08-30T05:40:22;1.67;;;1.57;;
3006;SDS011;1513;47.650;10.720;2023-08-30T05:42:49;2.77;;;1.67;;
3006;SDS011;1513;47.650;10.720;2023-08-30T05:45:16;1.50;;;1.40;;
3006;SDS011;1513;47.650;10.720;2023-08-30T05:47:42;1.57;;;1.47;;
3006;SDS011;1513;47.650;10.720;2023-08-30T05:50:09;1.50;;;1.40;;
3006;SDS011;1513;47.650;10.720;2023-08-30T05:52:35;1.20;;;1.10;;
3006;SDS011;1513;47.650;10.720;2023-08-30T05:55:09;1.57;;;1.47;;
3006;SDS011;1513;47.650;10.720;2023-08-30T05:57:36;2.17;;;1.47;;
3006;SDS011;1513;47.650;10.720;2023-08-30T06:00:03;2.63;;;1.63;;
3006;SDS011;1513;47.650;10.720;2023-08-30T06:02:39;1.80;;;1.70;;
3006;SDS011;1513;47.650;10.720;2023-08-30T06:05:06;2.20;;;1.90;;
3006;SDS011;1513;47.650;10.720;2023-08-30T06:07:32;1.70;;;1.60;;
3006;SDS011;1513;47.650;10.720;2023-08-30T06:09:59;1.87;;;1.77;;
3006;SDS011;1513;47.650;10.720;2023-08-30T06:12:26;2.50;;;2.00;;
3006;SDS011;1513;47.650;10.720;2023-08-30T06:14:52;1.87;;;1.73;;
3006;SDS011;1513;47.650;10.720;2023-08-30T06:17:19;1.90;;;1.60;;
3006;SDS011;1513;47.650;10.720;2023-08-30T06:19:45;2.30;;;2.17;;
3006;SDS011;1513;47.650;10.720;2023-08-30T06:22:12;1.93;;;1.50;;
3006;SDS011;1513;47.650;10.720;2023-08-30T06:24:39;4.63;;;1.70;;
3006;SDS011;1513;47.650;10.720;2023-08-30T06:27:05;2.07;;;1.63;;
3006;SDS011;1513;47.650;10.720;2023-08-30T06:29:31;2.73;;;2.23;;
3006;SDS011;1513;47.650;10.720;2023-08-30T06:31:58;2.10;;;1.90;;
3006;SDS011;1513;47.650;10.720;2023-08-30T06:34:25;3.10;;;2.80;;
3006;SDS011;1513;47.650;10.720;2023-08-30T06:36:51;2.43;;;2.23;;
3006;SDS011;1513;47.650;10.720;2023-08-30T06:39:17;2.23;;;2.03;;
3006;SDS011;1513;47.650;10.720;2023-08-30T06:41:44;2.13;;;2.00;;
3006;SDS011;1513;47.650;10.720;2023-08-30T06:44:13;2.10;;;1.90;;
3006;SDS011;1513;47.650;10.720;2023-08-30T06:46:40;2.40;;;2.20;;
3006;SDS011;1513;47.650;10.720;2023-08-30T06:49:07;2.43;;;1.90;;
3006;SDS011;1513;47.650;10.720;2023-08-30T06:51:34;1.60;;;1.50;;
3006;SDS011;1513;47.650;10.720;2023-08-30T06:54:01;3.20;;;1.37;;
3006;SDS011;1513;47.650;10.720;2023-08-30T06:56:27;1.40;;;1.40;;
3006;SDS011;1513;47.650;10.720;2023-08-30T06:58:54;1.80;;;1.70;;
3006;SDS011;1513;47.650;10.720;2023-08-30T07:01:20;2.00;;;1.80;;
3006;SDS011;1513;47.650;10.720;2023-08-30T07:03:47;2.00;;;1.83;;
3006;SDS011;1513;47.650;10.720;2023-08-30T07:06:13;2.37;;;1.90;;
3006;SDS011;1513;47.650;10.720;2023-08-30T07:08:39;2.20;;;2.00;;
3006;SDS011;1513;47.650;10.720;2023-08-30T07:11:06;2.20;;;2.00;;
3006;SDS011;1513;47.650;10.720;2023-08-30T07:13:32;3.67;;;2.30;;
3006;SDS011;1513;47.650;10.720;2023-08-30T07:15:59;4.53;;;2.10;;
3006;SDS011;1513;47.650;10.720;2023-08-30T07:18:25;3.43;;;2.63;;
3006;SDS011;1513;47.650;10.720;2023-08-30T07:20:51;2.50;;;2.30;;
3006;SDS011;1513;47.650;10.720;2023-08-30T07:23:18;3.00;;;2.40;;
3006;SDS011;1513;47.650;10.720;2023-08-30T07:25:44;4.10;;;3.20;;
3006;SDS011;1513;47.650;10.720;2023-08-30T07:28:10;4.63;;;2.70;;
3006;SDS011;1513;47.650;10.720;2023-08-30T07:30:37;3.60;;;2.93;;
3006;SDS011;1513;47.650;10.720;2023-08-30T07:33:04;2.47;;;2.27;;
3006;SDS011;1513;47.650;10.720;2023-08-30T07:35:30;2.43;;;2.23;;
3006;SDS011;1513;47.650;10.720;2023-08-30T07:37:58;2.40;;;2.20;;
3006;SDS011;1513;47.650;10.720;2023-08-30T07:40:24;2.90;;;2.43;;
3006;SDS011;1513;47.650;10.720;2023-08-30T07:42:53;2.03;;;1.50;;
3006;SDS011;1513;47.650;10.720;2023-08-30T07:45:20;2.47;;;1.83;;
3006;SDS011;1513;47.650;10.720;2023-08-30T07:47:46;3.40;;;2.10;;
3006;SDS011;1513;47.650;10.720;2023-08-30T07:50:13;2.50;;;1.67;;
3006;SDS011;1513;47.650;10.720;2023-08-30T07:52:39;1.53;;;1.43;;
3006;SDS011;1513;47.650;10.720;2023-08-30T07:55:05;1.40;;;1.30;;
3006;SDS011;1513;47.650;10.720;2023-08-30T07:57:32;3.50;;;1.73;;
3006;SDS011;1513;47.650;10.720;2023-08-30T07:59:58;1.80;;;1.37;;
3006;SDS011;1513;47.650;10.720;2023-08-30T08:02:25;1.27;;;1.10;;
3006;SDS011;1513;47.650;10.720;2023-08-30T08:04:51;1.00;;;1.00;;
3006;SDS011;1513;47.650;10.720;2023-08-30T08:07:17;1.00;;;0.90;;
3006;SDS011;1513;47.650;10.720;2023-08-30T08:09:44;1.73;;;1.30;;
3006;SDS011;1513;47.650;10.720;2023-08-30T08:12:10;2.67;;;1.37;;
3006;SDS011;1513;47.650;10.720;2023-08-30T08:14:36;2.00;;;1.17;;
3006;SDS011;1513;47.650;10.720;2023-08-30T08:17:04;1.70;;;1.60;;
3006;SDS011;1513;47.650;10.720;2023-08-30T08:19:30;1.30;;;1.23;;
3006;SDS011;1513;47.650;10.720;2023-08-30T08:21:56;1.43;;;1.13;;
3006;SDS011;1513;47.650;10.720;2023-08-30T08:24:23;1.40;;;1.30;;
3006;SDS011;1513;47.650;10.720;2023-08-30T08:26:49;2.90;;;1.40;;
3006;SDS011;1513;47.650;10.720;2023-08-30T08:29:16;2.60;;;1.47;;
3006;SDS011;1513;47.650;10.720;2023-08-30T08:31:42;1.90;;;1.43;;
3006;SDS011;1513;47.650;10.720;2023-08-30T08:34:10;1.40;;;1.30;;
3006;SDS011;1513;47.650;10.720;2023-08-30T08:36:37;2.00;;;1.30;;
3006;SDS011;1513;47.650;10.720;2023-08-30T08:39:04;1.67;;;1.40;;
3006;SDS011;1513;47.650;10.720;2023-08-30T08:41:44;1.57;;;1.47;;
3006;SDS011;1513;47.650;10.720;2023-08-30T08:44:11;1.10;;;1.10;;
3006;SDS011;1513;47.650;10.720;2023-08-30T08:46:38;1.67;;;1.40;;
3006;SDS011;1513;47.650;10.720;2023-08-30T08:49:13;1.03;;;1.00;;
3006;SDS011;1513;47.650;10.720;2023-08-30T08:51:40;1.20;;;1.20;;
3006;SDS011;1513;47.650;10.720;2023-08-30T08:54:10;1.60;;;1.17;;
3006;SDS011;1513;47.650;10.720;2023-08-30T08:56:38;2.47;;;1.50;;
3006;SDS011;1513;47.650;10.720;2023-08-30T08:59:05;1.40;;;1.20;;
3006;SDS011;1513;47.650;10.720;2023-08-30T09:01:36;3.33;;;1.53;;
3006;SDS011;1513;47.650;10.720;2023-08-30T09:04:10;1.50;;;1.33;;
3006;SDS011;1513;47.650;10.720;2023-08-30T09:06:37;1.43;;;1.30;;
3006;SDS011;1513;47.650;10.720;2023-08-30T09:09:08;2.27;;;1.40;;
3006;SDS011;1513;47.650;10.720;2023-08-30T09:11:35;1.47;;;1.37;;
3006;SDS011;1513;47.650;10.720;2023-08-30T09:14:02;2.13;;;1.60;;
3006;SDS011;1513;47.650;10.720;2023-08-30T09:16:29;1.60;;;1.23;;
3006;SDS011;1513;47.650;10.720;2023-08-30T09:21:25;1.50;;;1.40;;
3006;SDS011;1513;47.650;10.720;2023-08-30T09:23:58;1.90;;;1.60;;
3006;SDS011;1513;47.650;10.720;2023-08-30T09:26:29;1.43;;;1.30;;
3006;SDS011;1513;47.650;10.720;2023-08-30T09:29:04;1.40;;;1.30;;
3006;SDS011;1513;47.650;10.720;2023-08-30T09:31:34;1.23;;;1.23;;
3006;SDS011;1513;47.650;10.720;2023-08-30T09:34:02;1.50;;;1.40;;
3006;SDS011;1513;47.650;10.720;2023-08-30T09:36:35;2.00;;;1.37;;
3006;SDS011;1513;47.650;10.720;2023-08-30T09:39:09;2.00;;;1.87;;
3006;SDS011;1513;47.650;10.720;2023-08-30T09:41:37;1.87;;;1.70;;
3006;SDS011;1513;47.650;10.720;2023-08-30T09:44:29;3.00;;;2.63;;
3006;SDS011;1513;47.650;10.720;2023-08-30T09:46:55;2.57;;;2.10;;
3006;SDS011;1513;47.650;10.720;2023-08-30T09:49:22;2.10;;;2.00;;
3006;SDS011;1513;47.650;10.720;2023-08-30T09:51:50;2.20;;;2.10;;
3006;SDS011;1513;47.650;10.720;2023-08-30T09:54:18;4.60;;;2.00;;
3006;SDS011;1513;47.650;10.720;2023-08-30T09:56:48;1.93;;;1.73;;
3006;SDS011;1513;47.650;10.720;2023-08-30T09:59:18;1.97;;;1.87;;
3006;SDS011;1513;47.650;10.720;2023-08-30T10:01:46;1.80;;;1.70;;
3006;SDS011;1513;47.650;10.720;2023-08-30T10:04:18;2.60;;;2.40;;
3006;SDS011;1513;47.650;10.720;2023-08-30T10:06:45;1.53;;;1.30;;
3006;SDS011;1513;47.650;10.720;2023-08-30T10:09:12;2.03;;;1.40;;
3006;SDS011;1513;47.650;10.720;2023-08-30T10:11:42;2.37;;;2.03;;
3006;SDS011;1513;47.650;10.720;2023-08-30T10:14:11;4.03;;;1.77;;
3006;SDS011;1513;47.650;10.720;2023-08-30T10:16:42;5.10;;;1.57;;
3006;SDS011;1513;47.650;10.720;2023-08-30T10:21:43;1.40;;;1.40;;
3006;SDS011;1513;47.650;10.720;2023-08-30T10:24:11;1.47;;;1.37;;
3006;SDS011;1513;47.650;10.720;2023-08-30T10:26:41;1.47;;;1.37;;
3006;SDS011;1513;47.650;10.720;2023-08-30T10:29:10;1.70;;;1.60;;
3006;SDS011;1513;47.650;10.720;2023-08-30T10:31:37;1.50;;;1.40;;
3006;SDS011;1513;47.650;10.720;2023-08-30T10:34:11;4.20;;;1.60;;
3006;SDS011;1513;47.650;10.720;2023-08-30T10:36:41;2.10;;;1.87;;
3006;SDS011;1513;47.650;10.720;2023-08-30T10:39:12;1.80;;;1.70;;
3006;SDS011;1513;47.650;10.720;2023-08-30T10:41:55;2.30;;;2.10;;
3006;SDS011;1513;47.650;10.720;2023-08-30T10:44:22;2.37;;;2.17;;
3006;SDS011;1513;47.650;10.720;2023-08-30T10:46:52;1.57;;;1.47;;
3006;SDS011;1513;47.650;10.720;2023-08-30T10:49:19;2.30;;;2.10;;
3006;SDS011;1513;47.650;10.720;2023-08-30T10:51:57;1.70;;;1.60;;
3006;SDS011;1513;47.650;10.720;2023-08-30T10:54:24;1.60;;;1.50;;
3006;SDS011;1513;47.650;10.720;2023-08-30T10:59:20;1.60;;;1.53;;
3006;SDS011;1513;47.650;10.720;2023-08-30T11:01:48;1.83;;;1.50;;
3006;SDS011;1513;47.650;10.720;2023-08-30T11:04:17;2.00;;;1.50;;
3006;SDS011;1513;47.650;10.720;2023-08-30T11:06:45;1.73;;;1.63;;
3006;SDS011;1513;47.650;10.720;2023-08-30T11:09:15;1.30;;;1.20;;
3006;SDS011;1513;47.650;10.720;2023-08-30T11:11:43;1.63;;;1.53;;
3006;SDS011;1513;47.650;10.720;2023-08-30T11:14:11;2.20;;;2.10;;
3006;SDS011;1513;47.650;10.720;2023-08-30T11:16:37;2.17;;;1.97;;
3006;SDS011;1513;47.650;10.720;2023-08-30T11:19:04;6.20;;;1.50;;
3006;SDS011;1513;47.650;10.720;2023-08-30T11:21:32;1.60;;;1.50;;
3006;SDS011;1513;47.650;10.720;2023-08-30T11:24:00;1.60;;;1.50;;
3006;SDS011;1513;47.650;10.720;2023-08-30T11:26:27;1.90;;;1.80;;
3006;SDS011;1513;47.650;10.720;2023-08-30T11:28:54;2.17;;;1.60;;
3006;SDS011;1513;47.650;10.720;2023-08-30T11:31:24;1.73;;;1.63;;
3006;SDS011;1513;47.650;10.720;2023-08-30T11:33:56;2.10;;;1.40;;
3006;SDS011;1513;47.650;10.720;2023-08-30T11:36:24;7.30;;;1.70;;
3006;SDS011;1513;47.650;10.720;2023-08-30T11:38:53;3.03;;;1.70;;
3006;SDS011;1513;47.650;10.720;2023-08-30T11:41:20;2.67;;;2.47;;
3006;SDS011;1513;47.650;10.720;2023-08-30T11:43:47;2.10;;;2.00;;
3006;SDS011;1513;47.650;10.720;2023-08-30T11:46:13;1.33;;;1.33;;
3006;SDS011;1513;47.650;10.720;2023-08-30T11:48:40;2.53;;;2.17;;
3006;SDS011;1513;47.650;10.720;2023-08-30T11:51:07;1.60;;;1.50;;
3006;SDS011;1513;47.650;10.720;2023-08-30T11:53:34;6.70;;;5.10;;
3006;SDS011;1513;47.650;10.720;2023-08-30T11:56:00;1.67;;;1.57;;
3006;SDS011;1513;47.650;10.720;2023-08-30T11:58:27;1.90;;;1.80;;
3006;SDS011;1513;47.650;10.720;2023-08-30T12:00:57;3.03;;;1.50;;
3006;SDS011;1513;47.650;10.720;2023-08-30T12:03:23;1.60;;;1.50;;
3006;SDS011;1513;47.650;10.720;2023-08-30T12:05:53;1.43;;;1.33;;
3006;SDS011;1513;47.650;10.720;2023-08-30T12:08:20;2.40;;;1.40;;
3006;SDS011;1513;47.650;10.720;2023-08-30T12:10:50;1.40;;;1.30;;
3006;SDS011;1513;47.650;10.720;2023-08-30T12:15:51;2.50;;;1.60;;
3006;SDS011;1513;47.650;10.720;2023-08-30T12:18:21;1.30;;;1.20;;
3006;SDS011;1513;47.650;10.720;2023-08-30T12:20:57;1.30;;;1.20;;
3006;SDS011;1513;47.650;10.720;2023-08-30T12:23:26;1.37;;;1.37;;
3006;SDS011;1513;47.650;10.720;2023-08-30T12:26:06;1.17;;;0.90;;
3006;SDS011;1513;47.650;10.720;2023-08-30T12:28:34;1.23;;;1.20;;
3006;SDS011;1513;47.650;10.720;2023-08-30T12:31:02;2.00;;;1.17;;
3006;SDS011;1513;47.650;10.720;2023-08-30T12:33:33;3.60;;;1.40;;
3006;SDS011;1513;47.650;10.720;2023-08-30T12:35:59;1.40;;;1.40;;
3006;SDS011;1513;47.650;10.720;2023-08-30T12:38:26;3.47;;;1.27;;
3006;SDS011;1513;47.650;10.720;2023-08-30T12:40:53;2.13;;;1.30;;
3006;SDS011;1513;47.650;10.720;2023-08-30T12:43:20;1.17;;;1.10;;
3006;SDS011;1513;47.650;10.720;2023-08-30T12:45:47;1.30;;;1.20;;
3006;SDS011;1513;47.650;10.720;2023-08-30T12:48:15;1.57;;;1.30;;
3006;SDS011;1513;47.650;10.720;2023-08-30T12:50:43;1.20;;;1.20;;
3006;SDS011;1513;47.650;10.720;2023-08-30T12:53:10;4.17;;;1.30;;
3006;SDS011;1513;47.650;10.720;2023-08-30T12:55:37;1.30;;;1.17;;
3006;SDS011;1513;47.650;10.720;2023-08-30T12:58:09;1.63;;;1.53;;
3006;SDS011;1513;47.650;10.720;2023-08-30T13:00:37;1.67;;;1.57;;
3006;SDS011;1513;47.650;10.720;2023-08-30T13:03:03;1.67;;;1.57;;
3006;SDS011;1513;47.650;10.720;2023-08-30T13:05:30;3.53;;;1.10;;
3006;SDS011;1513;47.650;10.720;2023-08-30T13:07:57;6.47;;;1.10;;
3006;SDS011;1513;47.650;10.720;2023-08-30T13:10:24;1.20;;;1.10;;
3006;SDS011;1513;47.650;10.720;2023-08-30T13:12:51;1.20;;;1.20;;
3006;SDS011;1513;47.650;10.720;2023-08-30T13:15:17;1.10;;;1.10;;
3006;SDS011;1513;47.650;10.720;2023-08-30T13:17:44;1.37;;;1.10;;
3006;SDS011;1513;47.650;10.720;2023-08-30T13:20:10;1.83;;;1.23;;
3006;SDS011;1513;47.650;10.720;2023-08-30T13:22:36;1.20;;;1.17;;
3006;SDS011;1513;47.650;10.720;2023-08-30T13:25:03;1.20;;;1.10;;
3006;SDS011;1513;47.650;10.720;2023-08-30T13:27:30;1.33;;;1.23;;
3006;SDS011;1513;47.650;10.720;2023-08-30T13:29:56;3.47;;;1.50;;
3006;SDS011;1513;47.650;10.720;2023-08-30T13:32:23;1.33;;;1.23;;
3006;SDS011;1513;47.650;10.720;2023-08-30T13:34:50;1.97;;;1.70;;
3006;SDS011;1513;47.650;10.720;2023-08-30T13:37:16;1.97;;;1.87;;
3006;SDS011;1513;47.650;10.720;2023-08-30T13:39:43;1.90;;;1.70;;
3006;SDS011;1513;47.650;10.720;2023-08-30T13:42:09;1.57;;;1.47;;
3006;SDS011;1513;47.650;10.720;2023-08-30T13:44:36;1.87;;;1.70;;
3006;SDS011;1513;47.650;10.720;2023-08-30T13:47:05;2.00;;;1.90;;
3006;SDS011;1513;47.650;10.720;2023-08-30T13:49:32;5.17;;;1.80;;
3006;SDS011;1513;47.650;10.720;2023-08-30T13:51:58;1.73;;;1.63;;
3006;SDS011;1513;47.650;10.720;2023-08-30T13:54:24;2.03;;;1.80;;
3006;SDS011;1513;47.650;10.720;2023-08-30T13:56:51;1.70;;;1.60;;
3006;SDS011;1513;47.650;10.720;2023-08-30T13:59:17;2.50;;;1.80;;
3006;SDS011;1513;47.650;10.720;2023-08-30T14:01:44;1.67;;;1.57;;
3006;SDS011;1513;47.650;10.720;2023-08-30T14:04:10;1.50;;;1.40;;
3006;SDS011;1513;47.650;10.720;2023-08-30T14:06:37;3.73;;;2.13;;
3006;SDS011;1513;47.650;10.720;2023-08-30T14:09:03;2.37;;;1.60;;
3006;SDS011;1513;47.650;10.720;2023-08-30T14:11:31;2.80;;;1.70;;
3006;SDS011;1513;47.650;10.720;2023-08-30T14:13:58;2.07;;;1.90;;
3006;SDS011;1513;47.650;10.720;2023-08-30T14:16:24;1.20;;;1.20;;
3006;SDS011;1513;47.650;10.720;2023-08-30T14:18:51;1.60;;;1.50;;
3006;SDS011;1513;47.650;10.720;2023-08-30T14:21:17;2.00;;;1.50;;
3006;SDS011;1513;47.650;10.720;2023-08-30T14:23:43;1.70;;;1.60;;
3006;SDS011;1513;47.650;10.720;2023-08-30T14:26:10;1.50;;;1.40;;
3006;SDS011;1513;47.650;10.720;2023-08-30T14:28:40;1.60;;;1.50;;
3006;SDS011;1513;47.650;10.720;2023-08-30T14:31:07;3.10;;;1.80;;
3006;SDS011;1513;47.650;10.720;2023-08-30T14:33:34;3.17;;;1.40;;
3006;SDS011;1513;47.650;10.720;2023-08-30T14:36:01;1.70;;;1.60;;
3006;SDS011;1513;47.650;10.720;2023-08-30T14:38:28;1.80;;;1.70;;
3006;SDS011;1513;47.650;10.720;2023-08-30T14:41:00;1.90;;;1.80;;
3006;SDS011;1513;47.650;10.720;2023-08-30T14:43:30;2.20;;;1.80;;
3006;SDS011;1513;47.650;10.720;2023-08-30T14:46:03;2.60;;;2.00;;
3006;SDS011;1513;47.650;10.720;2023-08-30T14:48:31;2.20;;;2.00;;
3006;SDS011;1513;47.650;10.720;2023-08-30T14:50:58;1.40;;;1.40;;
3006;SDS011;1513;47.650;10.720;2023-08-30T14:53:25;1.90;;;1.80;;
3006;SDS011;1513;47.650;10.720;2023-08-30T14:55:51;1.70;;;1.60;;
3006;SDS011;1513;47.650;10.720;2023-08-30T14:58:18;1.90;;;1.80;;
3006;SDS011;1513;47.650;10.720;2023-08-30T15:00:47;3.97;;;1.50;;
3006;SDS011;1513;47.650;10.720;2023-08-30T15:03:13;1.67;;;1.57;;
3006;SDS011;1513;47.650;10.720;2023-08-30T15:05:40;1.97;;;1.87;;
3006;SDS011;1513;47.650;10.720;2023-08-30T15:08:06;2.23;;;2.03;;
3006;SDS011;1513;47.650;10.720;2023-08-30T15:10:33;1.50;;;1.50;;
3006;SDS011;1513;47.650;10.720;2023-08-30T15:12:59;1.77;;;1.67;;
3006;SDS011;1513;47.650;10.720;2023-08-30T15:15:25;2.00;;;1.70;;
3006;SDS011;1513;47.650;10.720;2023-08-30T15:17:52;1.60;;;1.50;;
3006;SDS011;1513;47.650;10.720;2023-08-30T15:20:18;9.30;;;1.60;;
3006;SDS011;1513;47.650;10.720;2023-08-30T15:22:44;2.10;;;1.60;;